Terminal Aerodrome Forecast
Issued by NWS Paducah, KY

Home | Current Version | Previous Version | Text Only | Print | Product List | Glossary On
Versions: 1 2 3 4 5 6 7 8 9 10 11 12 13 14 15 16 17 18 19 20 21
000
FTUS43 KPAH 050102 AAA
TAFEVV
TAF AMD
KEVV 050102Z 0501/0524 04004KT 5SM HZ FEW035 BKN250
     FM050500 00000KT 3SM BR SCT050 BKN250
     FM051400 10004KT P6SM SCT040=

USA.gov is the U.S. government's official web portal to all federal, state and local government web resources and services.